sensor_id;sensor_type;location;lat;lon;timestamp;P1;durP1;ratioP1;P2;durP2;ratioP2
49223;SDS011;35050;51.316;5.994;2022-12-18T00:02:24;15.88;;;9.35;;
49223;SDS011;35050;51.316;5.994;2022-12-18T00:04:50;14.63;;;8.95;;
49223;SDS011;35050;51.316;5.994;2022-12-18T00:07:15;18.90;;;9.85;;
49223;SDS011;35050;51.316;5.994;2022-12-18T00:09:41;16.13;;;8.48;;
49223;SDS011;35050;51.316;5.994;2022-12-18T00:12:07;15.57;;;8.57;;
49223;SDS011;35050;51.316;5.994;2022-12-18T00:14:32;15.68;;;8.75;;
49223;SDS011;35050;51.316;5.994;2022-12-18T00:16:58;17.95;;;8.75;;
49223;SDS011;35050;51.316;5.994;2022-12-18T00:19:25;14.63;;;8.70;;
49223;SDS011;35050;51.316;5.994;2022-12-18T00:21:51;15.52;;;8.18;;
49223;SDS011;35050;51.316;5.994;2022-12-18T00:24:16;19.48;;;8.65;;
49223;SDS011;35050;51.316;5.994;2022-12-18T00:26:42;16.25;;;9.60;;
49223;SDS011;35050;51.316;5.994;2022-12-18T00:29:11;16.70;;;9.00;;
49223;SDS011;35050;51.316;5.994;2022-12-18T00:31:39;14.43;;;8.80;;
49223;SDS011;35050;51.316;5.994;2022-12-18T00:34:05;18.95;;;9.90;;
49223;SDS011;35050;51.316;5.994;2022-12-18T00:36:33;18.77;;;9.60;;
49223;SDS011;35050;51.316;5.994;2022-12-18T00:39:01;18.63;;;10.38;;
49223;SDS011;35050;51.316;5.994;2022-12-18T00:41:28;17.30;;;10.00;;
49223;SDS011;35050;51.316;5.994;2022-12-18T00:44:13;16.00;;;8.77;;
49223;SDS011;35050;51.316;5.994;2022-12-18T00:46:40;15.57;;;9.13;;
49223;SDS011;35050;51.316;5.994;2022-12-18T00:49:07;14.70;;;8.75;;
49223;SDS011;35050;51.316;5.994;2022-12-18T00:51:33;14.98;;;8.30;;
49223;SDS011;35050;51.316;5.994;2022-12-18T00:53:58;17.05;;;8.63;;
49223;SDS011;35050;51.316;5.994;2022-12-18T00:56:24;16.58;;;8.38;;
49223;SDS011;35050;51.316;5.994;2022-12-18T00:58:50;11.90;;;7.57;;
49223;SDS011;35050;51.316;5.994;2022-12-18T01:01:16;14.93;;;8.65;;
49223;SDS011;35050;51.316;5.994;2022-12-18T01:03:42;13.32;;;7.78;;
49223;SDS011;35050;51.316;5.994;2022-12-18T01:06:10;13.40;;;8.38;;
49223;SDS011;35050;51.316;5.994;2022-12-18T01:08:37;15.70;;;8.63;;
49223;SDS011;35050;51.316;5.994;2022-12-18T01:11:07;16.13;;;8.93;;
49223;SDS011;35050;51.316;5.994;2022-12-18T01:13:34;16.02;;;8.65;;
49223;SDS011;35050;51.316;5.994;2022-12-18T01:16:00;16.25;;;8.50;;
49223;SDS011;35050;51.316;5.994;2022-12-18T01:18:26;14.07;;;8.25;;
49223;SDS011;35050;51.316;5.994;2022-12-18T01:20:51;14.10;;;8.18;;
49223;SDS011;35050;51.316;5.994;2022-12-18T01:23:17;14.68;;;8.13;;
49223;SDS011;35050;51.316;5.994;2022-12-18T01:25:43;13.30;;;7.68;;
49223;SDS011;35050;51.316;5.994;2022-12-18T01:28:08;14.32;;;8.00;;
49223;SDS011;35050;51.316;5.994;2022-12-18T01:30:34;13.35;;;7.47;;
49223;SDS011;35050;51.316;5.994;2022-12-18T01:32:59;13.60;;;7.55;;
49223;SDS011;35050;51.316;5.994;2022-12-18T01:35:25;13.45;;;8.02;;
49223;SDS011;35050;51.316;5.994;2022-12-18T01:37:53;12.35;;;7.15;;
49223;SDS011;35050;51.316;5.994;2022-12-18T01:40:20;14.80;;;7.20;;
49223;SDS011;35050;51.316;5.994;2022-12-18T01:42:49;12.63;;;6.70;;
49223;SDS011;35050;51.316;5.994;2022-12-18T01:48:02;13.63;;;6.72;;
49223;SDS011;35050;51.316;5.994;2022-12-18T01:55:46;12.98;;;7.30;;
49223;SDS011;35050;51.316;5.994;2022-12-18T01:58:16;11.68;;;6.85;;
49223;SDS011;35050;51.316;5.994;2022-12-18T02:00:43;12.40;;;6.75;;
49223;SDS011;35050;51.316;5.994;2022-12-18T02:03:09;10.98;;;6.88;;
49223;SDS011;35050;51.316;5.994;2022-12-18T02:08:20;13.80;;;7.28;;
49223;SDS011;35050;51.316;5.994;2022-12-18T02:11:04;12.32;;;7.03;;
49223;SDS011;35050;51.316;5.994;2022-12-18T02:14:04;14.88;;;7.07;;
49223;SDS011;35050;51.316;5.994;2022-12-18T02:19:00;11.18;;;6.03;;
49223;SDS011;35050;51.316;5.994;2022-12-18T02:27:29;12.32;;;7.25;;
49223;SDS011;35050;51.316;5.994;2022-12-18T02:29:57;11.65;;;6.55;;
49223;SDS011;35050;51.316;5.994;2022-12-18T02:32:25;12.65;;;7.43;;
49223;SDS011;35050;51.316;5.994;2022-12-18T02:34:55;12.68;;;6.75;;
49223;SDS011;35050;51.316;5.994;2022-12-18T02:37:22;13.88;;;7.32;;
49223;SDS011;35050;51.316;5.994;2022-12-18T02:39:50;14.73;;;7.35;;
49223;SDS011;35050;51.316;5.994;2022-12-18T02:42:19;14.00;;;8.02;;
49223;SDS011;35050;51.316;5.994;2022-12-18T02:44:49;15.70;;;7.75;;
49223;SDS011;35050;51.316;5.994;2022-12-18T02:47:20;12.63;;;7.18;;
49223;SDS011;35050;51.316;5.994;2022-12-18T02:50:07;12.35;;;7.43;;
49223;SDS011;35050;51.316;5.994;2022-12-18T03:01:11;17.08;;;8.15;;
49223;SDS011;35050;51.316;5.994;2022-12-18T03:04:13;13.95;;;7.38;;
49223;SDS011;35050;51.316;5.994;2022-12-18T03:06:59;12.68;;;7.63;;
49223;SDS011;35050;51.316;5.994;2022-12-18T03:09:33;14.70;;;7.43;;
49223;SDS011;35050;51.316;5.994;2022-12-18T03:12:04;15.77;;;7.73;;
49223;SDS011;35050;51.316;5.994;2022-12-18T03:14:49;16.48;;;8.05;;
49223;SDS011;35050;51.316;5.994;2022-12-18T03:17:30;14.50;;;8.45;;
49223;SDS011;35050;51.316;5.994;2022-12-18T03:19:58;14.50;;;8.27;;
49223;SDS011;35050;51.316;5.994;2022-12-18T03:22:30;15.63;;;7.90;;
49223;SDS011;35050;51.316;5.994;2022-12-18T03:24:58;15.20;;;8.43;;
49223;SDS011;35050;51.316;5.994;2022-12-18T03:27:27;13.77;;;8.13;;
49223;SDS011;35050;51.316;5.994;2022-12-18T03:29:57;10.93;;;6.05;;
49223;SDS011;35050;51.316;5.994;2022-12-18T03:32:52;14.30;;;8.30;;
49223;SDS011;35050;51.316;5.994;2022-12-18T03:35:40;18.58;;;9.43;;
49223;SDS011;35050;51.316;5.994;2022-12-18T03:38:07;18.52;;;10.32;;
49223;SDS011;35050;51.316;5.994;2022-12-18T03:40:58;21.92;;;11.93;;
49223;SDS011;35050;51.316;5.994;2022-12-18T03:43:29;23.38;;;11.02;;
49223;SDS011;35050;51.316;5.994;2022-12-18T03:46:07;18.63;;;9.93;;
49223;SDS011;35050;51.316;5.994;2022-12-18T03:48:41;19.63;;;9.88;;
49223;SDS011;35050;51.316;5.994;2022-12-18T03:51:15;18.80;;;10.55;;
49223;SDS011;35050;51.316;5.994;2022-12-18T03:56:18;20.50;;;11.00;;
49223;SDS011;35050;51.316;5.994;2022-12-18T03:58:48;21.42;;;10.70;;
49223;SDS011;35050;51.316;5.994;2022-12-18T04:01:15;20.15;;;10.73;;
49223;SDS011;35050;51.316;5.994;2022-12-18T04:03:42;18.55;;;10.38;;
49223;SDS011;35050;51.316;5.994;2022-12-18T04:06:10;23.40;;;11.10;;
49223;SDS011;35050;51.316;5.994;2022-12-18T04:08:36;20.52;;;10.13;;
49223;SDS011;35050;51.316;5.994;2022-12-18T04:11:04;21.40;;;11.43;;
49223;SDS011;35050;51.316;5.994;2022-12-18T04:13:34;22.15;;;11.77;;
49223;SDS011;35050;51.316;5.994;2022-12-18T04:16:01;21.92;;;12.40;;
49223;SDS011;35050;51.316;5.994;2022-12-18T04:18:27;20.40;;;11.45;;
49223;SDS011;35050;51.316;5.994;2022-12-18T04:20:53;21.50;;;11.75;;
49223;SDS011;35050;51.316;5.994;2022-12-18T04:23:19;21.00;;;11.98;;
49223;SDS011;35050;51.316;5.994;2022-12-18T04:25:45;23.13;;;12.80;;
49223;SDS011;35050;51.316;5.994;2022-12-18T04:28:12;23.38;;;13.43;;
49223;SDS011;35050;51.316;5.994;2022-12-18T04:30:37;26.05;;;13.70;;
49223;SDS011;35050;51.316;5.994;2022-12-18T04:33:03;27.50;;;14.40;;
49223;SDS011;35050;51.316;5.994;2022-12-18T04:35:29;25.60;;;14.07;;
49223;SDS011;35050;51.316;5.994;2022-12-18T04:37:55;23.98;;;13.98;;
49223;SDS011;35050;51.316;5.994;2022-12-18T04:40:20;27.80;;;15.35;;
49223;SDS011;35050;51.316;5.994;2022-12-18T04:42:46;25.65;;;13.98;;
49223;SDS011;35050;51.316;5.994;2022-12-18T04:45:12;28.05;;;15.10;;
49223;SDS011;35050;51.316;5.994;2022-12-18T04:47:37;28.40;;;15.25;;
49223;SDS011;35050;51.316;5.994;2022-12-18T04:50:03;29.90;;;15.30;;
49223;SDS011;35050;51.316;5.994;2022-12-18T04:52:29;23.35;;;13.88;;
49223;SDS011;35050;51.316;5.994;2022-12-18T04:54:55;26.42;;;13.90;;
49223;SDS011;35050;51.316;5.994;2022-12-18T04:57:20;24.73;;;14.10;;
49223;SDS011;35050;51.316;5.994;2022-12-18T04:59:46;24.58;;;13.45;;
49223;SDS011;35050;51.316;5.994;2022-12-18T05:02:11;26.52;;;13.73;;
49223;SDS011;35050;51.316;5.994;2022-12-18T05:04:37;26.55;;;13.73;;
49223;SDS011;35050;51.316;5.994;2022-12-18T05:07:03;25.02;;;14.35;;
49223;SDS011;35050;51.316;5.994;2022-12-18T05:09:29;25.88;;;13.68;;
49223;SDS011;35050;51.316;5.994;2022-12-18T05:11:54;24.30;;;12.93;;
49223;SDS011;35050;51.316;5.994;2022-12-18T05:14:20;21.05;;;12.43;;
49223;SDS011;35050;51.316;5.994;2022-12-18T05:16:46;21.05;;;12.02;;
49223;SDS011;35050;51.316;5.994;2022-12-18T05:19:11;19.33;;;10.63;;
49223;SDS011;35050;51.316;5.994;2022-12-18T05:21:37;17.48;;;10.63;;
49223;SDS011;35050;51.316;5.994;2022-12-18T05:24:03;17.15;;;10.27;;
49223;SDS011;35050;51.316;5.994;2022-12-18T05:26:29;19.38;;;10.57;;
49223;SDS011;35050;51.316;5.994;2022-12-18T05:28:56;20.00;;;10.75;;
49223;SDS011;35050;51.316;5.994;2022-12-18T05:31:22;22.55;;;11.63;;
49223;SDS011;35050;51.316;5.994;2022-12-18T05:33:47;23.00;;;12.50;;
49223;SDS011;35050;51.316;5.994;2022-12-18T05:36:13;24.50;;;13.70;;
49223;SDS011;35050;51.316;5.994;2022-12-18T05:38:39;25.75;;;14.27;;
49223;SDS011;35050;51.316;5.994;2022-12-18T05:41:05;23.92;;;13.52;;
49223;SDS011;35050;51.316;5.994;2022-12-18T05:43:31;26.90;;;14.95;;
49223;SDS011;35050;51.316;5.994;2022-12-18T05:46:03;25.90;;;14.27;;
49223;SDS011;35050;51.316;5.994;2022-12-18T05:51:03;26.17;;;15.05;;
49223;SDS011;35050;51.316;5.994;2022-12-18T05:53:34;28.50;;;14.05;;
49223;SDS011;35050;51.316;5.994;2022-12-18T05:56:01;26.83;;;15.77;;
49223;SDS011;35050;51.316;5.994;2022-12-18T05:58:29;26.05;;;14.85;;
49223;SDS011;35050;51.316;5.994;2022-12-18T06:00:55;32.13;;;15.88;;
49223;SDS011;35050;51.316;5.994;2022-12-18T06:03:22;25.38;;;14.18;;
49223;SDS011;35050;51.316;5.994;2022-12-18T06:05:47;28.42;;;14.88;;
49223;SDS011;35050;51.316;5.994;2022-12-18T06:08:13;30.20;;;16.48;;
49223;SDS011;35050;51.316;5.994;2022-12-18T06:10:39;30.48;;;15.65;;
49223;SDS011;35050;51.316;5.994;2022-12-18T06:13:06;27.02;;;14.82;;
49223;SDS011;35050;51.316;5.994;2022-12-18T06:15:31;27.33;;;15.27;;
49223;SDS011;35050;51.316;5.994;2022-12-18T06:17:58;30.02;;;16.02;;
49223;SDS011;35050;51.316;5.994;2022-12-18T06:20:25;26.25;;;14.77;;
49223;SDS011;35050;51.316;5.994;2022-12-18T06:22:50;27.75;;;16.33;;
49223;SDS011;35050;51.316;5.994;2022-12-18T06:25:16;29.20;;;16.15;;
49223;SDS011;35050;51.316;5.994;2022-12-18T06:27:42;30.08;;;16.15;;
49223;SDS011;35050;51.316;5.994;2022-12-18T06:30:07;25.20;;;15.27;;
49223;SDS011;35050;51.316;5.994;2022-12-18T06:32:34;29.17;;;15.27;;
49223;SDS011;35050;51.316;5.994;2022-12-18T06:34:59;29.50;;;16.10;;
49223;SDS011;35050;51.316;5.994;2022-12-18T06:37:25;27.95;;;16.35;;
49223;SDS011;35050;51.316;5.994;2022-12-18T06:39:51;27.88;;;14.98;;
49223;SDS011;35050;51.316;5.994;2022-12-18T06:42:18;29.35;;;15.48;;
49223;SDS011;35050;51.316;5.994;2022-12-18T06:44:43;28.15;;;14.90;;
49223;SDS011;35050;51.316;5.994;2022-12-18T06:47:09;29.27;;;15.13;;
49223;SDS011;35050;51.316;5.994;2022-12-18T06:49:34;23.40;;;13.98;;
49223;SDS011;35050;51.316;5.994;2022-12-18T06:52:00;25.45;;;13.57;;
49223;SDS011;35050;51.316;5.994;2022-12-18T06:54:26;21.30;;;12.90;;
49223;SDS011;35050;51.316;5.994;2022-12-18T06:56:51;23.27;;;12.63;;
49223;SDS011;35050;51.316;5.994;2022-12-18T06:59:17;24.25;;;13.88;;
49223;SDS011;35050;51.316;5.994;2022-12-18T07:01:43;25.15;;;14.48;;
49223;SDS011;35050;51.316;5.994;2022-12-18T07:04:08;25.27;;;13.75;;
49223;SDS011;35050;51.316;5.994;2022-12-18T07:06:34;23.38;;;13.55;;
49223;SDS011;35050;51.316;5.994;2022-12-18T07:08:59;21.92;;;12.70;;
49223;SDS011;35050;51.316;5.994;2022-12-18T07:11:25;25.48;;;13.82;;
49223;SDS011;35050;51.316;5.994;2022-12-18T07:13:51;24.50;;;15.07;;
49223;SDS011;35050;51.316;5.994;2022-12-18T07:16:18;25.92;;;14.60;;
49223;SDS011;35050;51.316;5.994;2022-12-18T07:18:45;24.55;;;13.15;;
49223;SDS011;35050;51.316;5.994;2022-12-18T07:21:12;25.10;;;14.15;;
49223;SDS011;35050;51.316;5.994;2022-12-18T07:23:40;25.85;;;13.48;;
49223;SDS011;35050;51.316;5.994;2022-12-18T07:26:07;21.23;;;12.15;;
49223;SDS011;35050;51.316;5.994;2022-12-18T07:28:35;25.38;;;14.02;;
49223;SDS011;35050;51.316;5.994;2022-12-18T07:31:05;23.33;;;13.27;;
49223;SDS011;35050;51.316;5.994;2022-12-18T07:33:32;21.95;;;12.35;;
49223;SDS011;35050;51.316;5.994;2022-12-18T07:36:02;26.27;;;14.43;;
49223;SDS011;35050;51.316;5.994;2022-12-18T07:38:30;22.67;;;12.38;;
49223;SDS011;35050;51.316;5.994;2022-12-18T07:41:06;24.55;;;12.95;;
49223;SDS011;35050;51.316;5.994;2022-12-18T07:43:34;23.33;;;13.88;;
49223;SDS011;35050;51.316;5.994;2022-12-18T07:46:00;25.35;;;14.88;;
49223;SDS011;35050;51.316;5.994;2022-12-18T07:48:25;25.75;;;14.63;;
49223;SDS011;35050;51.316;5.994;2022-12-18T07:50:52;26.33;;;14.85;;
49223;SDS011;35050;51.316;5.994;2022-12-18T07:53:18;26.27;;;14.65;;
49223;SDS011;35050;51.316;5.994;2022-12-18T07:55:43;26.70;;;14.65;;
49223;SDS011;35050;51.316;5.994;2022-12-18T07:58:09;28.88;;;16.08;;
49223;SDS011;35050;51.316;5.994;2022-12-18T08:00:35;31.15;;;15.35;;
49223;SDS011;35050;51.316;5.994;2022-12-18T08:03:01;24.90;;;15.25;;
49223;SDS011;35050;51.316;5.994;2022-12-18T08:05:27;24.55;;;14.40;;
49223;SDS011;35050;51.316;5.994;2022-12-18T08:07:52;25.17;;;14.77;;
49223;SDS011;35050;51.316;5.994;2022-12-18T08:10:18;24.13;;;13.43;;
49223;SDS011;35050;51.316;5.994;2022-12-18T08:12:45;28.48;;;14.80;;
49223;SDS011;35050;51.316;5.994;2022-12-18T08:15:10;25.05;;;14.00;;
49223;SDS011;35050;51.316;5.994;2022-12-18T08:17:36;24.85;;;14.07;;
49223;SDS011;35050;51.316;5.994;2022-12-18T08:20:02;24.20;;;14.38;;
49223;SDS011;35050;51.316;5.994;2022-12-18T08:22:28;24.92;;;13.63;;
49223;SDS011;35050;51.316;5.994;2022-12-18T08:24:53;22.88;;;13.75;;
49223;SDS011;35050;51.316;5.994;2022-12-18T08:27:19;23.52;;;14.50;;
49223;SDS011;35050;51.316;5.994;2022-12-18T08:29:45;25.77;;;14.77;;
49223;SDS011;35050;51.316;5.994;2022-12-18T08:32:11;25.17;;;14.77;;
49223;SDS011;35050;51.316;5.994;2022-12-18T08:34:37;24.52;;;13.55;;
49223;SDS011;35050;51.316;5.994;2022-12-18T08:37:03;25.60;;;14.38;;
49223;SDS011;35050;51.316;5.994;2022-12-18T08:39:28;26.25;;;14.57;;
49223;SDS011;35050;51.316;5.994;2022-12-18T08:41:54;23.60;;;14.02;;
49223;SDS011;35050;51.316;5.994;2022-12-18T08:44:38;24.90;;;14.35;;
49223;SDS011;35050;51.316;5.994;2022-12-18T08:47:04;21.90;;;13.55;;
49223;SDS011;35050;51.316;5.994;2022-12-18T08:49:30;27.70;;;14.82;;
49223;SDS011;35050;51.316;5.994;2022-12-18T08:51:56;26.08;;;15.10;;
49223;SDS011;35050;51.316;5.994;2022-12-18T08:54:22;26.05;;;14.73;;
49223;SDS011;35050;51.316;5.994;2022-12-18T08:56:49;26.15;;;15.20;;
49223;SDS011;35050;51.316;5.994;2022-12-18T08:59:15;26.85;;;15.07;;
49223;SDS011;35050;51.316;5.994;2022-12-18T09:01:41;25.15;;;14.23;;
49223;SDS011;35050;51.316;5.994;2022-12-18T09:04:07;32.13;;;16.42;;
49223;SDS011;35050;51.316;5.994;2022-12-18T09:06:36;26.23;;;15.75;;
49223;SDS011;35050;51.316;5.994;2022-12-18T09:09:03;26.38;;;15.23;;
49223;SDS011;35050;51.316;5.994;2022-12-18T09:11:29;27.58;;;15.13;;
49223;SDS011;35050;51.316;5.994;2022-12-18T09:13:56;27.17;;;15.55;;
49223;SDS011;35050;51.316;5.994;2022-12-18T09:16:23;26.95;;;15.77;;
49223;SDS011;35050;51.316;5.994;2022-12-18T09:18:50;26.85;;;14.98;;
49223;SDS011;35050;51.316;5.994;2022-12-18T09:21:17;24.70;;;14.85;;
49223;SDS011;35050;51.316;5.994;2022-12-18T09:23:45;25.25;;;15.10;;
49223;SDS011;35050;51.316;5.994;2022-12-18T09:26:17;25.58;;;15.45;;
49223;SDS011;35050;51.316;5.994;2022-12-18T09:28:43;24.33;;;14.93;;
49223;SDS011;35050;51.316;5.994;2022-12-18T09:31:10;25.35;;;15.35;;
49223;SDS011;35050;51.316;5.994;2022-12-18T09:33:37;26.05;;;15.18;;
49223;SDS011;35050;51.316;5.994;2022-12-18T09:36:04;26.20;;;14.60;;
49223;SDS011;35050;51.316;5.994;2022-12-18T09:38:32;23.40;;;14.05;;
49223;SDS011;35050;51.316;5.994;2022-12-18T09:41:05;20.13;;;13.00;;
49223;SDS011;35050;51.316;5.994;2022-12-18T09:46:11;21.13;;;13.13;;
49223;SDS011;35050;51.316;5.994;2022-12-18T09:48:46;27.65;;;15.60;;
49223;SDS011;35050;51.316;5.994;2022-12-18T09:51:16;24.10;;;14.07;;
49223;SDS011;35050;51.316;5.994;2022-12-18T09:53:47;21.45;;;12.60;;
49223;SDS011;35050;51.316;5.994;2022-12-18T09:56:18;21.83;;;13.23;;
49223;SDS011;35050;51.316;5.994;2022-12-18T09:58:49;20.00;;;13.13;;
49223;SDS011;35050;51.316;5.994;2022-12-18T10:01:27;22.02;;;13.48;;
49223;SDS011;35050;51.316;5.994;2022-12-18T10:03:54;23.90;;;14.93;;
49223;SDS011;35050;51.316;5.994;2022-12-18T10:06:23;22.73;;;13.75;;
49223;SDS011;35050;51.316;5.994;2022-12-18T10:11:43;25.23;;;13.80;;
49223;SDS011;35050;51.316;5.994;2022-12-18T10:14:43;22.60;;;13.77;;
49223;SDS011;35050;51.316;5.994;2022-12-18T10:19:57;27.33;;;15.68;;
49223;SDS011;35050;51.316;5.994;2022-12-18T10:28:19;26.35;;;15.27;;
49223;SDS011;35050;51.316;5.994;2022-12-18T10:30:46;27.55;;;15.55;;
49223;SDS011;35050;51.316;5.994;2022-12-18T10:33:12;25.17;;;14.40;;
49223;SDS011;35050;51.316;5.994;2022-12-18T10:35:41;26.42;;;15.60;;
49223;SDS011;35050;51.316;5.994;2022-12-18T10:43:37;24.15;;;14.07;;
49223;SDS011;35050;51.316;5.994;2022-12-18T10:48:34;22.33;;;12.90;;
49223;SDS011;35050;51.316;5.994;2022-12-18T10:51:04;25.08;;;14.25;;
49223;SDS011;35050;51.316;5.994;2022-12-18T10:53:31;24.15;;;14.68;;
49223;SDS011;35050;51.316;5.994;2022-12-18T10:55:59;25.63;;;14.90;;
49223;SDS011;35050;51.316;5.994;2022-12-18T10:58:28;28.23;;;16.02;;
49223;SDS011;35050;51.316;5.994;2022-12-18T11:03:38;25.25;;;15.25;;
49223;SDS011;35050;51.316;5.994;2022-12-18T11:06:10;23.15;;;14.80;;
49223;SDS011;35050;51.316;5.994;2022-12-18T11:08:42;25.38;;;14.18;;
49223;SDS011;35050;51.316;5.994;2022-12-18T11:11:42;25.75;;;14.63;;
49223;SDS011;35050;51.316;5.994;2022-12-18T11:14:03;25.53;;;15.13;;
49223;SDS011;35050;51.316;5.994;2022-12-18T11:16:36;25.90;;;15.10;;
49223;SDS011;35050;51.316;5.994;2022-12-18T11:19:19;22.35;;;13.93;;
49223;SDS011;35050;51.316;5.994;2022-12-18T11:21:46;23.38;;;13.95;;
49223;SDS011;35050;51.316;5.994;2022-12-18T11:24:19;23.50;;;14.88;;
49223;SDS011;35050;51.316;5.994;2022-12-18T11:27:00;24.52;;;15.35;;
49223;SDS011;35050;51.316;5.994;2022-12-18T11:29:31;23.98;;;15.00;;
49223;SDS011;35050;51.316;5.994;2022-12-18T11:34:39;22.50;;;14.30;;
49223;SDS011;35050;51.316;5.994;2022-12-18T11:37:09;24.45;;;15.68;;
49223;SDS011;35050;51.316;5.994;2022-12-18T11:39:37;26.25;;;16.13;;
49223;SDS011;35050;51.316;5.994;2022-12-18T11:44:48;29.00;;;18.20;;
49223;SDS011;35050;51.316;5.994;2022-12-18T11:50:49;28.33;;;16.38;;
49223;SDS011;35050;51.316;5.994;2022-12-18T11:53:17;29.88;;;16.50;;
49223;SDS011;35050;51.316;5.994;2022-12-18T11:55:53;28.02;;;17.52;;
49223;SDS011;35050;51.316;5.994;2022-12-18T11:59:03;26.73;;;16.05;;
49223;SDS011;35050;51.316;5.994;2022-12-18T12:05:09;23.45;;;14.98;;
49223;SDS011;35050;51.316;5.994;2022-12-18T12:12:54;22.85;;;14.60;;
49223;SDS011;35050;51.316;5.994;2022-12-18T12:15:28;23.52;;;14.20;;
49223;SDS011;35050;51.316;5.994;2022-12-18T12:18:09;21.35;;;13.32;;
49223;SDS011;35050;51.316;5.994;2022-12-18T12:20:48;21.75;;;14.65;;
49223;SDS011;35050;51.316;5.994;2022-12-18T12:26:14;22.35;;;13.93;;
49223;SDS011;35050;51.316;5.994;2022-12-18T12:29:00;28.33;;;16.17;;
49223;SDS011;35050;51.316;5.994;2022-12-18T12:31:39;27.15;;;15.57;;
49223;SDS011;35050;51.316;5.994;2022-12-18T12:39:31;33.83;;;19.67;;
49223;SDS011;35050;51.316;5.994;2022-12-18T12:42:02;33.33;;;17.98;;
49223;SDS011;35050;51.316;5.994;2022-12-18T12:44:55;28.33;;;16.73;;
49223;SDS011;35050;51.316;5.994;2022-12-18T12:47:25;32.30;;;19.10;;
49223;SDS011;35050;51.316;5.994;2022-12-18T12:49:55;31.00;;;17.73;;
49223;SDS011;35050;51.316;5.994;2022-12-18T12:54:57;27.02;;;15.38;;
49223;SDS011;35050;51.316;5.994;2022-12-18T12:57:30;26.55;;;16.05;;
49223;SDS011;35050;51.316;5.994;2022-12-18T13:02:35;26.10;;;15.95;;
49223;SDS011;35050;51.316;5.994;2022-12-18T13:07:48;25.38;;;15.00;;
49223;SDS011;35050;51.316;5.994;2022-12-18T13:15:23;26.42;;;15.57;;
49223;SDS011;35050;51.316;5.994;2022-12-18T13:20:36;24.10;;;15.18;;
49223;SDS011;35050;51.316;5.994;2022-12-18T13:25:51;25.13;;;15.40;;
49223;SDS011;35050;51.316;5.994;2022-12-18T13:36:12;24.67;;;14.90;;
49223;SDS011;35050;51.316;5.994;2022-12-18T13:38:47;25.15;;;14.70;;
49223;SDS011;35050;51.316;5.994;2022-12-18T13:41:32;23.63;;;14.15;;
49223;SDS011;35050;51.316;5.994;2022-12-18T13:47:00;21.23;;;12.95;;
49223;SDS011;35050;51.316;5.994;2022-12-18T13:49:40;22.90;;;13.70;;
49223;SDS011;35050;51.316;5.994;2022-12-18T13:52:19;21.83;;;13.00;;
49223;SDS011;35050;51.316;5.994;2022-12-18T13:54:57;23.60;;;14.25;;
49223;SDS011;35050;51.316;5.994;2022-12-18T13:59:56;28.40;;;16.83;;
49223;SDS011;35050;51.316;5.994;2022-12-18T14:02:23;30.13;;;18.90;;
49223;SDS011;35050;51.316;5.994;2022-12-18T14:04:51;25.85;;;16.35;;
49223;SDS011;35050;51.316;5.994;2022-12-18T14:07:19;24.10;;;14.82;;
49223;SDS011;35050;51.316;5.994;2022-12-18T14:09:50;26.92;;;16.05;;
49223;SDS011;35050;51.316;5.994;2022-12-18T14:12:20;23.98;;;15.63;;
49223;SDS011;35050;51.316;5.994;2022-12-18T14:15:50;24.92;;;14.85;;
49223;SDS011;35050;51.316;5.994;2022-12-18T14:18:02;26.65;;;16.40;;
49223;SDS011;35050;51.316;5.994;2022-12-18T14:20:28;23.40;;;14.20;;
49223;SDS011;35050;51.316;5.994;2022-12-18T14:22:56;28.58;;;14.88;;
49223;SDS011;35050;51.316;5.994;2022-12-18T14:25:23;23.67;;;14.63;;
49223;SDS011;35050;51.316;5.994;2022-12-18T14:28:33;26.23;;;14.88;;
49223;SDS011;35050;51.316;5.994;2022-12-18T14:30:43;26.50;;;14.85;;
49223;SDS011;35050;51.316;5.994;2022-12-18T14:35:39;25.02;;;15.02;;
49223;SDS011;35050;51.316;5.994;2022-12-18T14:40:42;22.92;;;13.88;;
49223;SDS011;35050;51.316;5.994;2022-12-18T14:43:11;24.65;;;14.05;;
49223;SDS011;35050;51.316;5.994;2022-12-18T14:48:16;21.00;;;12.13;;
49223;SDS011;35050;51.316;5.994;2022-12-18T14:50:44;20.08;;;11.77;;
49223;SDS011;35050;51.316;5.994;2022-12-18T14:53:20;23.50;;;13.60;;
49223;SDS011;35050;51.316;5.994;2022-12-18T14:56:17;21.55;;;12.60;;
49223;SDS011;35050;51.316;5.994;2022-12-18T14:58:51;26.20;;;12.77;;
49223;SDS011;35050;51.316;5.994;2022-12-18T15:01:21;24.58;;;13.98;;
49223;SDS011;35050;51.316;5.994;2022-12-18T15:03:51;23.20;;;14.55;;
49223;SDS011;35050;51.316;5.994;2022-12-18T15:06:24;24.92;;;14.27;;
49223;SDS011;35050;51.316;5.994;2022-12-18T15:08:51;23.77;;;14.10;;
49223;SDS011;35050;51.316;5.994;2022-12-18T15:11:33;27.77;;;15.05;;
49223;SDS011;35050;51.316;5.994;2022-12-18T15:14:00;24.85;;;14.90;;
49223;SDS011;35050;51.316;5.994;2022-12-18T15:16:49;23.45;;;14.68;;
49223;SDS011;35050;51.316;5.994;2022-12-18T15:19:16;24.33;;;14.48;;
49223;SDS011;35050;51.316;5.994;2022-12-18T15:21:42;26.63;;;16.70;;
49223;SDS011;35050;51.316;5.994;2022-12-18T15:24:15;29.33;;;16.15;;
49223;SDS011;35050;51.316;5.994;2022-12-18T15:26:43;27.38;;;15.75;;
49223;SDS011;35050;51.316;5.994;2022-12-18T15:29:19;25.17;;;14.88;;
49223;SDS011;35050;51.316;5.994;2022-12-18T15:31:57;20.65;;;13.80;;
49223;SDS011;35050;51.316;5.994;2022-12-18T15:34:28;22.48;;;13.98;;
49223;SDS011;35050;51.316;5.994;2022-12-18T15:36:54;22.83;;;13.82;;
49223;SDS011;35050;51.316;5.994;2022-12-18T15:39:20;24.38;;;15.10;;
49223;SDS011;35050;51.316;5.994;2022-12-18T15:41:45;24.20;;;14.38;;
49223;SDS011;35050;51.316;5.994;2022-12-18T15:44:30;28.67;;;16.42;;
49223;SDS011;35050;51.316;5.994;2022-12-18T15:46:56;26.13;;;15.57;;
49223;SDS011;35050;51.316;5.994;2022-12-18T15:49:22;27.75;;;14.88;;
49223;SDS011;35050;51.316;5.994;2022-12-18T15:51:52;25.83;;;15.95;;
49223;SDS011;35050;51.316;5.994;2022-12-18T15:54:21;24.95;;;15.10;;
49223;SDS011;35050;51.316;5.994;2022-12-18T15:57:10;28.80;;;15.55;;
49223;SDS011;35050;51.316;5.994;2022-12-18T15:59:49;25.65;;;15.93;;
49223;SDS011;35050;51.316;5.994;2022-12-18T16:02:21;25.15;;;15.05;;
49223;SDS011;35050;51.316;5.994;2022-12-18T16:04:47;25.95;;;15.23;;
49223;SDS011;35050;51.316;5.994;2022-12-18T16:07:14;24.35;;;14.52;;
49223;SDS011;35050;51.316;5.994;2022-12-18T16:09:39;23.70;;;14.13;;
49223;SDS011;35050;51.316;5.994;2022-12-18T16:12:06;23.50;;;15.18;;
49223;SDS011;35050;51.316;5.994;2022-12-18T16:14:36;23.40;;;14.07;;
49223;SDS011;35050;51.316;5.994;2022-12-18T16:17:03;21.58;;;13.52;;
49223;SDS011;35050;51.316;5.994;2022-12-18T16:19:33;25.80;;;14.68;;
49223;SDS011;35050;51.316;5.994;2022-12-18T16:21:59;24.27;;;15.45;;
49223;SDS011;35050;51.316;5.994;2022-12-18T16:24:26;22.17;;;13.93;;
49223;SDS011;35050;51.316;5.994;2022-12-18T16:26:55;27.38;;;16.48;;
49223;SDS011;35050;51.316;5.994;2022-12-18T16:29:22;26.92;;;15.30;;
49223;SDS011;35050;51.316;5.994;2022-12-18T16:31:51;23.98;;;15.77;;
49223;SDS011;35050;51.316;5.994;2022-12-18T16:34:22;24.20;;;15.02;;
49223;SDS011;35050;51.316;5.994;2022-12-18T16:36:48;24.98;;;15.43;;
49223;SDS011;35050;51.316;5.994;2022-12-18T16:39:15;26.73;;;15.93;;
49223;SDS011;35050;51.316;5.994;2022-12-18T16:41:41;24.42;;;14.93;;